Time;durP1;ratioP1;P1;durP2;ratioP2;P2;SDS_P1;SDS_P2;PMS_P1;PMS_P2;Temp;Humidity;BMP_temperature;BMP_pressure;BME280_temperature;BME280_humidity;BME280_pressure;Samples;Min_cycle;Max_cycle;Signal;HPM_P1;HPM_P2
2022/09/02 00:00:07;;;;;;;2.50;1.30;;;19.20;73.90;;;;;;4143385;28;20030;-69
2022/09/02 00:02:07;;;;;;;4.00;1.30;;;19.30;74.00;;;;;;4143215;28;20483;-65
2022/09/02 00:04:14;;;;;;;3.95;1.50;;;19.20;74.00;;;;;;4144767;28;20041;-66
2022/09/02 00:06:15;;;;;;;1.42;1.17;;;19.20;74.10;;;;;;4142541;28;20447;-67
2022/09/02 00:08:16;;;;;;;2.00;1.08;;;19.20;74.20;;;;;;4144316;28;20045;-65
2022/09/02 00:10:16;;;;;;;1.67;1.10;;;19.20;74.00;;;;;;4143265;28;20037;-66
2022/09/02 00:12:17;;;;;;;1.42;0.90;;;19.20;73.80;;;;;;4143128;28;20088;-66
2022/09/02 00:14:26;;;;;;;3.55;1.20;;;19.20;73.90;;;;;;4142947;28;20037;-66
2022/09/02 00:16:27;;;;;;;2.65;1.50;;;19.10;74.10;;;;;;4143341;28;20116;-65
2022/09/02 00:18:28;;;;;;;3.00;1.25;;;19.10;74.40;;;;;;4144246;28;20080;-66
2022/09/02 00:20:29;;;;;;;2.17;1.20;;;18.90;74.80;;;;;;4141084;28;20041;-66
2022/09/02 00:22:30;;;;;;;2.75;1.40;;;18.80;75.00;;;;;;4133504;28;20065;-66
2022/09/02 00:24:31;;;;;;;1.77;1.13;;;18.80;74.90;;;;;;4142776;28;21021;-67
2022/09/02 00:26:31;;;;;;;2.92;1.45;;;18.70;75.10;;;;;;4143176;28;20505;-66
2022/09/02 00:28:32;;;;;;;2.55;1.55;;;18.60;75.50;;;;;;4143727;28;20061;-66
2022/09/02 00:30:34;;;;;;;2.65;1.35;;;18.60;75.70;;;;;;4142209;28;20111;-66
2022/09/02 00:32:35;;;;;;;2.47;1.00;;;18.50;75.90;;;;;;4142929;28;20096;-66
2022/09/02 00:34:35;;;;;;;1.90;1.00;;;18.50;75.90;;;;;;4143669;28;20050;-67
2022/09/02 00:36:36;;;;;;;1.55;1.30;;;18.50;76.00;;;;;;4142494;28;20030;-66
2022/09/02 00:38:38;;;;;;;4.45;1.52;;;18.40;76.60;;;;;;4143915;28;20413;-66
2022/09/02 00:40:44;;;;;;;1.67;1.30;;;18.30;76.90;;;;;;4141888;28;20041;-66
2022/09/02 00:42:45;;;;;;;2.47;1.40;;;18.30;76.80;;;;;;4142422;28;20084;-67
2022/09/02 00:44:46;;;;;;;4.63;1.60;;;18.30;76.90;;;;;;4144340;28;20069;-67
2022/09/02 00:46:47;;;;;;;3.30;1.35;;;18.20;77.30;;;;;;4143261;28;20513;-67
2022/09/02 00:49:16;;;;;;;2.47;1.30;;;18.30;77.50;;;;;;4143850;28;20089;-66
2022/09/02 00:51:17;;;;;;;2.00;1.33;;;18.30;77.20;;;;;;4142105;28;20052;-66
2022/09/02 00:53:19;;;;;;;1.77;1.17;;;18.40;77.20;;;;;;4143192;28;20121;-66
2022/09/02 00:55:24;;;;;;;3.97;1.38;;;18.50;77.00;;;;;;4141855;28;20088;-66
2022/09/02 00:57:30;;;;;;;3.60;1.30;;;18.50;77.30;;;;;;4122776;28;20425;-66
2022/09/02 00:59:50;;;;;;;2.88;1.50;;;18.60;76.70;;;;;;4142535;28;20038;-66
2022/09/02 01:01:50;;;;;;;2.65;1.30;;;18.60;76.70;;;;;;4141485;28;20029;-66
2022/09/02 01:03:52;;;;;;;2.10;1.27;;;18.60;76.30;;;;;;4142780;28;20038;-67
2022/09/02 01:05:54;;;;;;;2.05;1.20;;;18.60;76.20;;;;;;4143088;28;20393;-67
2022/09/02 01:07:57;;;;;;;2.47;1.20;;;18.70;76.00;;;;;;4143569;28;20390;-65
2022/09/02 01:09:58;;;;;;;2.25;1.35;;;18.70;75.60;;;;;;4142717;28;20036;-65
2022/09/02 01:12:01;;;;;;;2.03;1.02;;;18.70;75.80;;;;;;4142017;28;20050;-66
2022/09/02 01:14:02;;;;;;;1.95;1.30;;;18.80;75.90;;;;;;4143329;28;20512;-66
2022/09/02 01:16:11;;;;;;;1.33;1.15;;;18.80;75.30;;;;;;4142782;28;20034;-66
2022/09/02 01:18:17;;;;;;;1.92;1.33;;;18.80;75.30;;;;;;4143016;28;20050;-67
2022/09/02 01:20:27;;;;;;;3.05;1.25;;;18.80;75.20;;;;;;4144093;28;20030;-66
2022/09/02 01:22:31;;;;;;;2.25;1.10;;;18.80;75.10;;;;;;4143143;28;20053;-66
2022/09/02 01:24:33;;;;;;;1.60;1.20;;;18.80;75.10;;;;;;4144051;28;20543;-66
2022/09/02 01:26:34;;;;;;;2.08;1.13;;;18.70;75.30;;;;;;4141825;28;20109;-66
2022/09/02 01:28:35;;;;;;;2.20;1.00;;;18.60;75.60;;;;;;4141841;28;20026;-66
2022/09/02 01:30:40;;;;;;;1.73;1.15;;;18.60;75.80;;;;;;4144661;28;20085;-66
2022/09/02 01:32:41;;;;;;;1.52;1.10;;;18.60;76.00;;;;;;4142688;28;20060;-66
2022/09/02 01:34:41;;;;;;;3.08;1.48;;;18.50;76.30;;;;;;4143913;28;20033;-67
2022/09/02 01:36:42;;;;;;;2.30;1.35;;;18.50;76.50;;;;;;4143295;28;20089;-66
2022/09/02 01:38:43;;;;;;;2.15;1.20;;;18.50;77.00;;;;;;4143274;28;20675;-66
2022/09/02 01:40:43;;;;;;;1.67;1.17;;;18.60;76.50;;;;;;4142521;28;20456;-67
2022/09/02 01:42:46;;;;;;;1.17;1.00;;;18.60;76.00;;;;;;4143316;28;20050;-66
2022/09/02 01:44:46;;;;;;;3.63;1.30;;;18.60;76.00;;;;;;4143913;28;20030;-66
2022/09/02 01:46:47;;;;;;;2.58;1.30;;;18.50;76.90;;;;;;4143281;28;20049;-65
2022/09/02 01:48:48;;;;;;;1.67;1.10;;;18.50;76.40;;;;;;4142544;28;20042;-66
2022/09/02 01:50:53;;;;;;;3.47;1.45;;;18.50;76.40;;;;;;4142336;28;20040;-67
2022/09/02 01:52:54;;;;;;;1.58;1.00;;;18.40;76.60;;;;;;4141123;28;20041;-66
2022/09/02 01:54:56;;;;;;;2.10;1.20;;;18.40;76.50;;;;;;4143996;28;20040;-67
2022/09/02 01:56:57;;;;;;;2.42;1.20;;;18.50;76.50;;;;;;4143109;28;20121;-66
2022/09/02 01:58:58;;;;;;;3.15;1.30;;;18.50;76.70;;;;;;4142566;28;20030;-66
2022/09/02 02:00:58;;;;;;;2.40;1.27;;;18.60;76.50;;;;;;4143640;28;20084;-66
2022/09/02 02:02:59;;;;;;;4.55;1.60;;;18.50;76.40;;;;;;4143862;28;20386;-66
2022/09/02 02:04:59;;;;;;;2.45;1.60;;;18.50;76.50;;;;;;4143971;28;20026;-66
2022/09/02 02:07:00;;;;;;;2.30;1.30;;;18.50;76.60;;;;;;4141664;28;20057;-66
2022/09/02 02:09:01;;;;;;;2.45;1.40;;;18.50;76.60;;;;;;4142847;28;20079;-66
2022/09/02 02:11:01;;;;;;;1.83;1.30;;;18.50;76.60;;;;;;4143017;28;20045;-66
2022/09/02 02:13:02;;;;;;;2.15;1.50;;;18.40;76.70;;;;;;4143498;28;20030;-66
2022/09/02 02:15:06;;;;;;;1.55;1.20;;;18.40;77.10;;;;;;4143672;28;20038;-66
2022/09/02 02:17:07;;;;;;;4.38;1.45;;;18.50;77.50;;;;;;4142421;28;20072;-66
2022/09/02 02:19:07;;;;;;;2.45;1.55;;;18.50;77.50;;;;;;4144762;28;20038;-66
2022/09/02 02:21:08;;;;;;;2.67;1.65;;;18.40;77.20;;;;;;4143294;28;20114;-66
2022/09/02 02:23:08;;;;;;;3.92;1.70;;;18.40;76.90;;;;;;4143862;28;20418;-67
2022/09/02 02:25:10;;;;;;;2.25;1.67;;;18.50;79.00;;;;;;4141973;28;20073;-67
2022/09/02 02:27:11;;;;;;;3.55;1.60;;;18.50;77.40;;;;;;4141468;28;20022;-67
2022/09/02 02:29:12;;;;;;;4.53;1.65;;;18.50;77.80;;;;;;4141429;28;20405;-66
2022/09/02 02:31:13;;;;;;;2.92;1.50;;;18.50;77.60;;;;;;4141863;28;20041;-66
2022/09/02 02:33:13;;;;;;;2.80;1.58;;;18.40;77.60;;;;;;4143522;28;20061;-66
2022/09/02 02:35:16;;;;;;;2.97;1.60;;;18.40;77.80;;;;;;4141288;28;20037;-66
2022/09/02 02:37:17;;;;;;;3.17;1.77;;;18.40;77.90;;;;;;4143606;28;20084;-66
2022/09/02 02:39:17;;;;;;;3.42;1.92;;;18.30;78.80;;;;;;4145440;28;20379;-66
2022/09/02 02:41:18;;;;;;;3.05;1.65;;;18.30;78.20;;;;;;4145819;28;20034;-66
2022/09/02 02:43:19;;;;;;;2.13;1.40;;;18.10;78.30;;;;;;4146645;28;20030;-67
2022/09/02 02:45:21;;;;;;;3.58;1.35;;;18.10;78.70;;;;;;4145797;28;20034;-66
2022/09/02 02:47:22;;;;;;;2.92;1.58;;;18.00;79.00;;;;;;4146933;28;20486;-66
2022/09/02 02:49:25;;;;;;;3.28;1.55;;;17.80;79.50;;;;;;4146700;28;20034;-66
2022/09/02 02:51:26;;;;;;;3.35;1.77;;;17.90;80.00;;;;;;4143718;28;20041;-66
2022/09/02 02:53:28;;;;;;;3.47;1.77;;;17.80;80.10;;;;;;4145547;28;20473;-66
2022/09/02 02:55:29;;;;;;;7.03;1.83;;;17.70;80.40;;;;;;4144197;28;20034;-66
2022/09/02 02:57:29;;;;;;;3.03;1.30;;;17.50;80.80;;;;;;4146598;28;20096;-65
2022/09/02 02:59:30;;;;;;;3.28;1.70;;;17.60;81.00;;;;;;4144341;28;20046;-66
2022/09/02 03:01:32;;;;;;;8.13;2.20;;;17.60;81.10;;;;;;4144390;28;20440;-67
2022/09/02 03:03:33;;;;;;;2.90;1.33;;;17.60;81.40;;;;;;4145990;28;20054;-66
2022/09/02 03:05:36;;;;;;;3.95;1.80;;;17.50;81.20;;;;;;4145742;28;20026;-66
2022/09/02 03:07:37;;;;;;;3.35;1.67;;;17.50;81.50;;;;;;4146339;28;20034;-66
2022/09/02 03:09:37;;;;;;;2.25;1.50;;;17.40;81.50;;;;;;4145932;28;20030;-67
2022/09/02 03:11:38;;;;;;;5.13;1.88;;;17.40;81.60;;;;;;4144487;28;20038;-66
2022/09/02 03:13:39;;;;;;;1.75;1.33;;;17.40;81.90;;;;;;4146521;28;20125;-66
2022/09/02 03:15:41;;;;;;;1.60;1.27;;;17.40;82.00;;;;;;4144436;28;20034;-65
2022/09/02 03:17:46;;;;;;;4.85;1.83;;;17.50;83.20;;;;;;4146409;28;20050;-67
2022/09/02 03:19:47;;;;;;;2.25;1.48;;;17.50;81.80;;;;;;4145997;28;20096;-66
2022/09/02 03:21:47;;;;;;;2.70;1.35;;;17.50;81.70;;;;;;4143695;28;20037;-66
2022/09/02 03:23:48;;;;;;;4.70;1.52;;;17.60;81.70;;;;;;4146204;28;20034;-67
2022/09/02 03:25:49;;;;;;;3.45;1.88;;;17.60;81.60;;;;;;4144990;28;20046;-67
2022/09/02 03:27:49;;;;;;;2.13;1.30;;;17.50;81.70;;;;;;4145516;28;20069;-66
2022/09/02 03:29:50;;;;;;;3.33;1.60;;;17.50;81.80;;;;;;4146488;28;20034;-65
2022/09/02 03:31:51;;;;;;;3.63;1.45;;;17.50;82.10;;;;;;4144110;28;20026;-66
2022/09/02 03:33:52;;;;;;;2.33;1.63;;;17.50;82.10;;;;;;4146403;28;20038;-67
2022/09/02 03:35:52;;;;;;;2.63;1.50;;;17.50;82.20;;;;;;4145313;28;20033;-66
2022/09/02 03:37:54;;;;;;;2.10;1.38;;;17.50;82.30;;;;;;4144420;28;20120;-66
2022/09/02 03:39:54;;;;;;;4.68;1.40;;;17.60;82.00;;;;;;4145748;28;20438;-66
2022/09/02 03:41:55;;;;;;;5.65;2.08;;;17.70;82.00;;;;;;4141273;28;20112;-67
2022/09/02 03:43:56;;;;;;;3.38;1.42;;;17.60;81.80;;;;;;4145919;28;20041;-66
2022/09/02 03:45:57;;;;;;;4.53;1.50;;;17.70;81.80;;;;;;4143901;28;20084;-66
2022/09/02 03:47:58;;;;;;;3.55;1.30;;;17.70;81.90;;;;;;4146355;28;20049;-66
2022/09/02 03:49:59;;;;;;;3.17;1.27;;;17.70;82.60;;;;;;4146009;28;20030;-67
2022/09/02 03:51:59;;;;;;;3.08;1.42;;;17.80;82.00;;;;;;4144702;28;20089;-65
2022/09/02 03:54:02;;;;;;;2.95;1.60;;;17.80;81.50;;;;;;4145752;28;20499;-65
2022/09/02 03:56:06;;;;;;;3.88;1.80;;;17.80;81.70;;;;;;4145618;28;20452;-66
2022/09/02 03:58:06;;;;;;;2.83;1.40;;;17.80;81.70;;;;;;4146453;28;20091;-66
2022/09/02 04:00:09;;;;;;;3.47;1.65;;;17.70;81.70;;;;;;4143469;28;20087;-66
2022/09/02 04:02:09;;;;;;;4.63;2.00;;;17.60;81.80;;;;;;4145433;28;20040;-66
2022/09/02 04:04:11;;;;;;;2.95;1.30;;;17.60;82.10;;;;;;4145916;28;20501;-67
2022/09/02 04:06:14;;;;;;;2.42;1.65;;;17.50;82.20;;;;;;4144939;28;20084;-66
2022/09/02 04:08:15;;;;;;;3.85;1.80;;;17.50;82.30;;;;;;4145662;28;20034;-66
2022/09/02 04:10:15;;;;;;;3.22;1.80;;;17.50;82.50;;;;;;4145509;28;20050;-66
2022/09/02 04:12:16;;;;;;;2.75;1.70;;;17.40;82.50;;;;;;4145362;28;20026;-66
2022/09/02 04:14:17;;;;;;;3.78;1.50;;;17.40;82.90;;;;;;4139060;28;20121;-66
2022/09/02 04:16:28;;;;;;;8.32;1.92;;;17.30;82.90;;;;;;4136214;28;20042;-66
2022/09/02 04:18:29;;;;;;;3.47;1.65;;;17.30;83.00;;;;;;4142423;28;20042;-66
2022/09/02 04:20:30;;;;;;;2.67;1.73;;;17.20;83.00;;;;;;4142295;28;20496;-65
2022/09/02 04:22:30;;;;;;;3.13;1.75;;;17.30;83.30;;;;;;4140471;28;20378;-66
2022/09/02 04:24:31;;;;;;;2.45;1.65;;;17.30;83.20;;;;;;4139821;28;20034;-66
2022/09/02 04:26:32;;;;;;;2.67;1.60;;;17.40;83.20;;;;;;4141072;28;20470;-66
2022/09/02 04:28:33;;;;;;;2.22;1.42;;;17.40;82.90;;;;;;4139698;28;20034;-65
2022/09/02 04:30:36;;;;;;;2.85;1.85;;;17.50;82.80;;;;;;4143195;28;20396;-66
2022/09/02 04:32:37;;;;;;;3.05;1.70;;;17.50;82.60;;;;;;4142476;28;20459;-66
2022/09/02 04:34:38;;;;;;;2.53;1.65;;;17.50;82.40;;;;;;4140538;28;20059;-67
2022/09/02 04:36:38;;;;;;;3.33;1.83;;;17.50;82.50;;;;;;4139992;28;20037;-66
2022/09/02 04:38:39;;;;;;;4.32;2.15;;;17.40;82.60;;;;;;4139914;28;20041;-66
2022/09/02 04:40:43;;;;;;;3.15;1.70;;;17.30;82.90;;;;;;4142029;28;20493;-66
2022/09/02 04:42:45;;;;;;;6.22;2.22;;;17.30;83.20;;;;;;4144113;28;20100;-66
2022/09/02 04:44:46;;;;;;;4.63;2.33;;;17.30;83.40;;;;;;4138196;28;20042;-66
2022/09/02 04:46:47;;;;;;;6.95;2.65;;;17.20;83.50;;;;;;4141773;28;20876;-67
2022/09/02 04:48:48;;;;;;;5.88;2.90;;;17.20;83.80;;;;;;4138337;28;20034;-67
2022/09/02 04:50:48;;;;;;;7.07;2.83;;;17.20;83.80;;;;;;4143276;28;20041;-66
2022/09/02 04:52:49;;;;;;;6.60;2.90;;;17.30;83.80;;;;;;4143555;28;20505;-67
2022/09/02 04:54:50;;;;;;;6.13;2.75;;;17.30;83.70;;;;;;4140918;28;20043;-67
2022/09/02 04:56:51;;;;;;;8.15;3.22;;;17.40;83.70;;;;;;4139631;28;20113;-66
2022/09/02 04:58:54;;;;;;;6.50;2.95;;;17.40;83.50;;;;;;4140351;28;20112;-66
2022/09/02 05:00:55;;;;;;;7.93;3.42;;;17.40;83.30;;;;;;4142395;28;20042;-67
2022/09/02 05:02:55;;;;;;;7.95;3.50;;;17.50;83.20;;;;;;4137861;28;20400;-67
2022/09/02 05:04:56;;;;;;;8.23;3.15;;;17.50;83.00;;;;;;4140904;28;20509;-66
2022/09/02 05:07:00;;;;;;;7.22;3.75;;;17.50;83.00;;;;;;4139633;28;20113;-67
2022/09/02 05:09:02;;;;;;;7.15;3.47;;;17.40;83.10;;;;;;4138001;28;20707;-67
2022/09/02 05:11:12;;;;;;;8.30;3.33;;;17.50;83.30;;;;;;4140626;28;20408;-66
2022/09/02 05:13:12;;;;;;;8.00;3.45;;;17.50;83.30;;;;;;4139983;28;20132;-66
2022/09/02 05:15:13;;;;;;;6.68;3.10;;;17.50;83.30;;;;;;4136747;28;20058;-66
2022/09/02 05:17:14;;;;;;;6.25;3.15;;;17.50;83.10;;;;;;4139717;28;20553;-66
2022/09/02 05:19:15;;;;;;;6.45;3.25;;;17.50;83.20;;;;;;4140745;28;20038;-67
2022/09/02 05:21:15;;;;;;;7.53;3.05;;;17.50;83.90;;;;;;4140554;28;20041;-65
2022/09/02 05:23:16;;;;;;;8.27;3.33;;;17.50;83.20;;;;;;4139624;28;20042;-66
2022/09/02 05:25:17;;;;;;;8.18;3.45;;;17.40;83.20;;;;;;4140118;28;20485;-66
2022/09/02 05:27:19;;;;;;;7.25;3.00;;;17.40;83.40;;;;;;4139258;28;20049;-66
2022/09/02 05:29:19;;;;;;;8.80;3.35;;;17.40;83.40;;;;;;4139344;28;20609;-66
2022/09/02 05:31:21;;;;;;;9.50;3.30;;;17.40;83.60;;;;;;4140250;28;20049;-66
2022/09/02 05:33:21;;;;;;;7.88;2.95;;;17.30;83.70;;;;;;4140607;28;20046;-66
2022/09/02 05:35:22;;;;;;;7.60;3.47;;;17.30;84.10;;;;;;4139609;28;20398;-67
2022/09/02 05:37:24;;;;;;;5.10;2.90;;;17.20;84.10;;;;;;4140304;28;20057;-67
2022/09/02 05:39:25;;;;;;;6.18;3.33;;;17.20;84.50;;;;;;4140172;28;20026;-66
2022/09/02 05:41:26;;;;;;;9.20;3.10;;;17.20;84.70;;;;;;4140262;28;20033;-67
2022/09/02 05:43:27;;;;;;;6.18;2.78;;;17.20;85.00;;;;;;4140777;28;20037;-67
2022/09/02 05:45:27;;;;;;;5.90;2.80;;;17.20;85.50;;;;;;4139328;28;20100;-66
2022/09/02 05:47:28;;;;;;;7.43;3.10;;;17.20;85.40;;;;;;4140219;28;20129;-66
2022/09/02 05:49:29;;;;;;;5.80;2.60;;;17.20;85.50;;;;;;4140136;28;20492;-67
2022/09/02 05:51:30;;;;;;;6.97;2.50;;;17.10;85.40;;;;;;4140075;28;20030;-66
2022/09/02 05:53:31;;;;;;;8.18;2.85;;;17.20;85.60;;;;;;4139559;28;20030;-66
2022/09/02 05:55:32;;;;;;;6.22;2.80;;;17.20;85.50;;;;;;4139048;28;20042;-66
2022/09/02 05:57:32;;;;;;;5.55;2.80;;;17.30;85.40;;;;;;4140781;28;20022;-66
2022/09/02 05:59:35;;;;;;;8.60;3.03;;;17.30;85.10;;;;;;4139847;28;20040;-67
2022/09/02 06:01:36;;;;;;;6.95;3.22;;;17.30;84.90;;;;;;4138680;28;20987;-67
2022/09/02 06:03:37;;;;;;;6.43;3.38;;;17.40;86.10;;;;;;4141445;28;20049;-67
2022/09/02 06:05:39;;;;;;;6.82;3.00;;;17.50;85.20;;;;;;4139265;28;20026;-67
2022/09/02 06:07:40;;;;;;;6.38;3.63;;;17.60;87.30;;;;;;4140701;28;20037;-67
2022/09/02 06:09:43;;;;;;;5.35;2.50;;;17.70;86.70;;;;;;4139622;28;20074;-68
2022/09/02 06:11:44;;;;;;;4.78;2.83;;;17.80;84.90;;;;;;4138523;28;20548;-67
2022/09/02 06:13:45;;;;;;;4.93;2.85;;;18.00;84.10;;;;;;4140398;28;20037;-68
2022/09/02 06:15:46;;;;;;;6.10;3.40;;;18.00;83.10;;;;;;4136122;28;20034;-66
2022/09/02 06:17:47;;;;;;;6.05;3.20;;;18.00;83.50;;;;;;4140971;28;21147;-67
2022/09/02 06:19:47;;;;;;;7.57;2.95;;;18.10;83.50;;;;;;4140776;28;20532;-67
2022/09/02 06:21:48;;;;;;;7.85;2.80;;;18.20;83.20;;;;;;4139693;28;20109;-67
2022/09/02 06:23:49;;;;;;;5.53;2.70;;;18.30;85.30;;;;;;4134385;28;20039;-67
2022/09/02 06:25:49;;;;;;;4.95;2.42;;;18.40;83.00;;;;;;4140022;28;20080;-67
2022/09/02 06:27:50;;;;;;;4.15;2.40;;;18.50;82.50;;;;;;4140617;28;20409;-68
2022/09/02 06:29:51;;;;;;;4.20;2.10;;;18.60;82.50;;;;;;4140181;28;20168;-67
2022/09/02 06:31:52;;;;;;;6.47;2.90;;;18.70;81.80;;;;;;4139692;28;20042;-67
2022/09/02 06:33:54;;;;;;;4.70;2.40;;;18.70;81.40;;;;;;4140968;28;20120;-68
2022/09/02 06:35:55;;;;;;;;;;;18.80;81.60;;;;;;4138274;28;20038;-67
2022/09/02 06:37:55;;;;;;;5.95;2.58;;;18.90;81.20;;;;;;4139275;28;19921;-68
2022/09/02 06:39:56;;;;;;;6.82;2.50;;;18.90;81.10;;;;;;4142387;28;21677;-68
2022/09/02 06:41:57;;;;;;;4.63;2.15;;;19.00;81.60;;;;;;4140240;28;20168;-67
2022/09/02 06:44:04;;;;;;;5.43;2.20;;;19.10;81.80;;;;;;4140587;28;20042;-67
2022/09/02 06:46:05;;;;;;;7.80;2.08;;;19.20;82.60;;;;;;4133415;28;20214;-67
2022/09/02 06:48:06;;;;;;;6.20;2.30;;;19.20;81.40;;;;;;4139311;28;20034;-68
2022/09/02 06:50:08;;;;;;;4.55;2.20;;;19.20;80.00;;;;;;4140975;28;20045;-68
2022/09/02 06:52:11;;;;;;;5.55;2.00;;;19.30;82.50;;;;;;4137827;28;20096;-67
2022/09/02 06:54:15;;;;;;;4.82;2.20;;;19.40;83.70;;;;;;4139548;28;20030;-68
2022/09/02 06:56:17;;;;;;;3.00;2.05;;;19.40;83.70;;;;;;4139822;28;20497;-68
2022/09/02 06:58:17;;;;;;;7.78;2.38;;;19.50;80.40;;;;;;4139373;28;20106;-67
2022/09/02 07:00:19;;;;;;;5.35;2.10;;;19.50;79.30;;;;;;4139232;28;20485;-67
2022/09/02 07:02:20;;;;;;;4.37;2.30;;;19.50;79.10;;;;;;4139521;28;20034;-68
2022/09/02 07:06:43;;;;;;;5.15;2.40;;;19.40;79.10;;;;;;4134718;28;20038;-67
2022/09/02 07:08:44;;;;;;;11.32;3.25;;;19.40;79.50;;;;;;4138816;28;20084;-68
2022/09/02 07:10:44;;;;;;;8.70;2.97;;;19.40;79.40;;;;;;4139791;28;20069;-68
2022/09/02 07:12:45;;;;;;;7.72;2.55;;;19.40;79.60;;;;;;4140789;28;20045;-68
2022/09/02 07:14:46;;;;;;;6.07;2.80;;;19.50;79.80;;;;;;4139525;28;20038;-67
2022/09/02 07:16:51;;;;;;;5.65;2.60;;;19.50;80.30;;;;;;4131972;28;20444;-66
2022/09/02 07:18:52;;;;;;;4.03;2.10;;;19.50;79.50;;;;;;4139886;28;20435;-67
2022/09/02 07:20:53;;;;;;;6.75;2.20;;;19.60;79.50;;;;;;4139723;28;20485;-68
2022/09/02 07:22:55;;;;;;;4.25;2.35;;;19.60;78.80;;;;;;4140799;28;21185;-68
2022/09/02 07:24:56;;;;;;;10.82;2.58;;;19.60;79.10;;;;;;4137386;28;20109;-68
2022/09/02 07:26:57;;;;;;;5.22;2.33;;;19.60;78.70;;;;;;4141677;28;20042;-67
2022/09/02 07:28:57;;;;;;;5.05;2.80;;;19.70;79.50;;;;;;4144616;28;20155;-67
2022/09/02 07:30:58;;;;;;;6.03;2.00;;;19.80;82.20;;;;;;4141479;28;20153;-68
2022/09/02 07:33:00;;;;;;;5.25;2.50;;;19.90;79.90;;;;;;4144005;28;20244;-68
2022/09/02 07:35:01;;;;;;;3.92;2.10;;;20.00;79.90;;;;;;4144191;28;20181;-68
2022/09/02 07:37:01;;;;;;;3.67;2.28;;;20.20;80.00;;;;;;4141646;28;20119;-68
2022/09/02 07:39:04;;;;;;;4.63;2.17;;;20.40;81.60;;;;;;4145189;28;20052;-68
2022/09/02 07:41:08;;;;;;;4.57;2.20;;;20.60;82.00;;;;;;4143692;28;20044;-68
2022/09/02 07:43:09;;;;;;;4.85;2.20;;;20.80;82.10;;;;;;4145031;28;20392;-68
2022/09/02 07:45:13;;;;;;;5.53;2.40;;;21.10;79.00;;;;;;4143632;28;20507;-69
2022/09/02 07:47:14;;;;;;;5.03;1.77;;;21.30;77.00;;;;;;4144506;28;20049;-68
2022/09/02 07:49:16;;;;;;;6.25;2.03;;;21.50;78.70;;;;;;4143204;28;20505;-68
2022/09/02 07:51:18;;;;;;;4.45;2.10;;;21.70;76.80;;;;;;4143425;28;20037;-68
2022/09/02 07:53:19;;;;;;;5.63;2.10;;;21.90;78.20;;;;;;4143503;28;20053;-68
2022/09/02 07:55:21;;;;;;;7.53;1.98;;;22.00;75.40;;;;;;4143514;28;20037;-68
2022/09/02 07:57:22;;;;;;;4.70;1.67;;;22.10;74.00;;;;;;4144395;28;20042;-70
2022/09/02 07:59:23;;;;;;;5.18;2.30;;;22.10;73.50;;;;;;4141449;28;20545;-70
2022/09/02 08:01:24;;;;;;;4.78;2.05;;;22.10;73.00;;;;;;4143545;28;20040;-69
2022/09/02 08:03:25;;;;;;;5.88;2.47;;;22.20;73.60;;;;;;4144039;28;20541;-69
2022/09/02 08:05:27;;;;;;;5.30;2.38;;;22.30;73.70;;;;;;4142199;28;20033;-68
2022/09/02 08:07:28;;;;;;;7.13;2.45;;;22.30;73.70;;;;;;4142912;28;20429;-69
2022/09/02 08:09:29;;;;;;;6.47;2.88;;;22.40;73.70;;;;;;4143625;28;20034;-69
2022/09/02 08:11:31;;;;;;;4.38;2.33;;;22.60;72.90;;;;;;4143559;28;20101;-70
2022/09/02 08:13:33;;;;;;;7.30;2.47;;;22.70;72.60;;;;;;4125136;28;20037;-69
2022/09/02 08:15:35;;;;;;;5.85;2.80;;;22.90;74.80;;;;;;4139414;28;20073;-69
2022/09/02 08:17:39;;;;;;;5.78;2.00;;;23.00;72.30;;;;;;4143154;28;20045;-69
2022/09/02 08:19:40;;;;;;;7.82;2.03;;;23.20;73.60;;;;;;4142314;28;20030;-69
2022/09/02 08:21:40;;;;;;;6.38;2.08;;;23.30;72.50;;;;;;4139963;28;20413;-68
2022/09/02 08:23:41;;;;;;;4.63;1.80;;;23.40;71.30;;;;;;4144326;28;20066;-69
2022/09/02 08:25:42;;;;;;;6.55;2.03;;;23.60;71.40;;;;;;4142841;28;20117;-68
2022/09/02 08:27:44;;;;;;;4.03;1.50;;;23.70;73.20;;;;;;4144209;28;20038;-69
2022/09/02 08:29:45;;;;;;;3.88;1.83;;;23.80;74.00;;;;;;4144300;28;20034;-68
2022/09/02 08:31:45;;;;;;;3.90;1.80;;;24.00;70.80;;;;;;4142530;28;20445;-67
2022/09/02 08:33:46;;;;;;;3.28;1.30;;;24.10;71.60;;;;;;4144096;28;20060;-69
2022/09/02 08:35:47;;;;;;;1.67;1.20;;;24.20;69.10;;;;;;4142326;28;20135;-68
2022/09/02 08:37:47;;;;;;;2.95;1.35;;;24.30;70.60;;;;;;4142490;28;20057;-69
2022/09/02 08:39:48;;;;;;;2.75;1.65;;;24.40;68.30;;;;;;4141278;28;20129;-69
2022/09/02 08:42:09;;;;;;;2.83;1.58;;;24.40;68.30;;;;;;4142940;28;20057;-68
2022/09/02 08:44:14;;;;;;;4.00;1.33;;;24.50;68.70;;;;;;4124659;28;20443;-69
2022/09/02 08:46:16;;;;;;;2.78;1.27;;;24.40;68.30;;;;;;4142054;28;20044;-69
2022/09/02 08:48:59;;;;;;;3.58;1.73;;;24.50;68.50;;;;;;4143607;28;20026;-69
2022/09/02 08:51:08;;;;;;;1.85;1.30;;;24.60;68.90;;;;;;4142340;28;20045;-69
2022/09/02 08:53:18;;;;;;;2.13;1.30;;;24.70;68.90;;;;;;4139979;28;20397;-69
2022/09/02 08:55:26;;;;;;;3.47;1.63;;;24.80;69.80;;;;;;4136454;28;20042;-68
2022/09/02 08:57:28;;;;;;;2.10;1.15;;;24.80;67.30;;;;;;4139148;28;20038;-69
2022/09/02 08:59:30;;;;;;;2.13;1.13;;;24.90;68.30;;;;;;4140292;28;20038;-69
2022/09/02 09:01:39;;;;;;;2.90;1.45;;;25.00;73.30;;;;;;4139961;28;20030;-68
2022/09/02 09:04:08;;;;;;;2.22;1.20;;;25.00;65.40;;;;;;4137640;28;20042;-68
2022/09/02 09:06:19;;;;;;;2.55;1.17;;;24.90;64.90;;;;;;4142005;28;20058;-68
2022/09/02 09:08:35;;;;;;;3.15;1.08;;;24.90;64.90;;;;;;4142494;28;20030;-69
2022/09/02 09:10:56;;;;;;;1.30;1.10;;;24.90;65.00;;;;;;4142621;28;20073;-68
2022/09/02 09:13:02;;;;;;;2.92;1.30;;;25.00;65.70;;;;;;4138366;28;20393;-68
2022/09/02 09:15:32;;;;;;;4.78;1.40;;;25.10;66.90;;;;;;4143670;28;20036;-68
2022/09/02 09:17:43;;;;;;;4.85;1.70;;;25.10;65.50;;;;;;4142163;28;20485;-69
2022/09/02 09:19:47;;;;;;;3.35;1.27;;;25.20;66.10;;;;;;4143900;28;20038;-68
2022/09/02 09:21:47;;;;;;;3.30;1.77;;;25.30;65.80;;;;;;4137009;28;20034;-68
2022/09/02 09:23:48;;;;;;;5.18;1.50;;;25.30;66.00;;;;;;4140924;28;20401;-69
2022/09/02 09:25:53;;;;;;;4.88;1.50;;;25.30;65.30;;;;;;4141558;28;20037;-69
2022/09/02 09:27:59;;;;;;;4.07;2.28;;;25.20;65.50;;;;;;4142020;28;20675;-68
2022/09/02 09:30:01;;;;;;;3.05;1.52;;;25.30;66.00;;;;;;4142177;28;20041;-68
2022/09/02 09:32:04;;;;;;;5.85;2.35;;;25.40;65.70;;;;;;4139487;28;20053;-69
2022/09/02 09:34:10;;;;;;;3.88;1.25;;;25.50;66.60;;;;;;4138940;28;20151;-68
2022/09/02 09:36:12;;;;;;;3.72;1.15;;;25.60;66.60;;;;;;4141459;28;20030;-68
2022/09/02 09:38:13;;;;;;;2.95;1.60;;;25.60;65.50;;;;;;4142982;28;20037;-69
2022/09/02 09:40:24;;;;;;;4.70;1.67;;;25.70;64.80;;;;;;4143232;28;20096;-69
2022/09/02 09:42:36;;;;;;;2.28;1.40;;;25.70;64.60;;;;;;4143380;28;20034;-69
2022/09/02 09:44:47;;;;;;;2.75;1.42;;;25.80;64.10;;;;;;4142877;28;20112;-68
2022/09/02 09:47:00;;;;;;;4.22;1.60;;;25.80;63.30;;;;;;4140994;28;20045;-68
2022/09/02 09:49:01;;;;;;;3.28;1.50;;;25.70;64.00;;;;;;4143838;28;20034;-68
2022/09/02 09:51:01;;;;;;;7.97;1.25;;;25.70;62.20;;;;;;4141590;28;20049;-68
2022/09/02 09:53:19;;;;;;;7.72;1.20;;;25.60;61.30;;;;;;4142789;28;20038;-68
2022/09/02 09:55:21;;;;;;;1.95;1.08;;;25.60;61.90;;;;;;4139291;28;20084;-69
2022/09/02 09:57:23;;;;;;;2.15;1.30;;;25.60;62.60;;;;;;4141901;28;20034;-68
2022/09/02 09:59:44;;;;;;;2.67;1.17;;;25.70;63.80;;;;;;4139507;28;20115;-68
2022/09/02 10:01:50;;;;;;;2.03;1.35;;;25.80;63.50;;;;;;4132322;28;20037;-68
2022/09/02 10:03:55;;;;;;;2.17;1.33;;;25.90;63.80;;;;;;4144388;28;20093;-68
2022/09/02 10:05:58;;;;;;;1.60;1.23;;;26.00;62.20;;;;;;4142021;28;20037;-68
2022/09/02 10:08:02;;;;;;;1.90;1.10;;;26.00;61.60;;;;;;4138984;28;20443;-68
2022/09/02 10:10:18;;;;;;;1.83;1.08;;;26.10;63.40;;;;;;4141532;28;20030;-68
2022/09/02 10:12:32;;;;;;;1.60;1.10;;;26.10;61.40;;;;;;4141669;28;20048;-69
2022/09/02 10:14:43;;;;;;;2.53;1.50;;;26.20;62.90;;;;;;4141330;28;20044;-68
2022/09/02 10:17:18;;;;;;;4.93;1.30;;;26.30;61.50;;;;;;4141909;28;20084;-68
2022/09/02 10:19:51;;;;;;;2.13;1.40;;;26.30;62.00;;;;;;4142584;28;20030;-68
2022/09/02 10:22:22;;;;;;;1.63;1.10;;;26.40;60.80;;;;;;4138035;28;20037;-68
2022/09/02 10:24:41;;;;;;;3.15;1.27;;;26.40;60.90;;;;;;4140543;28;20280;-68
2022/09/02 10:26:48;;;;;;;2.15;1.30;;;26.40;60.10;;;;;;4142071;28;20038;-68
2022/09/02 10:28:52;;;;;;;2.60;1.20;;;26.40;58.60;;;;;;4142865;28;20389;-68
2022/09/02 10:31:31;;;;;;;2.60;1.33;;;26.30;58.80;;;;;;4140325;28;20084;-68
2022/09/02 10:34:06;;;;;;;1.48;1.10;;;26.30;58.40;;;;;;4139653;28;20478;-68
2022/09/02 10:36:31;;;;;;;2.13;1.00;;;26.40;58.50;;;;;;4126407;28;20481;-69
2022/09/02 10:38:42;;;;;;;1.98;1.10;;;26.40;57.80;;;;;;4141766;28;20092;-68
2022/09/02 10:40:51;;;;;;;1.60;1.00;;;26.30;57.80;;;;;;4141803;28;20374;-68
2022/09/02 10:43:04;;;;;;;2.28;1.02;;;26.50;57.50;;;;;;4142688;28;20041;-69
2022/09/02 10:45:13;;;;;;;;;;;26.40;57.30;;;;;;4141657;28;20129;-68